sim
Sign-in with your pilot id or email,
or register
Callsign
Passwort

Schedule Details

Flight Number: RYR6302 (3)
Departure: Barcelona El Prat Airport (LEBL) at 06:20
Arrival: Fuerteventura Airport (GCFV) at 09:35
Route: Ryanair Passenger Schedule. Enter filed route here before submitting Pirep.

Weather Information
Getting current METAR information for LEBL 160230Z 32012KT CAVOK 05/M01 Q1029 NOSIG
Getting current METAR information for GCFV 160230Z AUTO 28005KT 9999 NCD 13/10 Q1018

Schedule Frequency

Route Map